Time;durP1;ratioP1;P1;durP2;ratioP2;P2;SDS_P1;SDS_P2;PMS_P1;PMS_P2;Temp;Humidity;BMP_temperature;BMP_pressure;BME280_temperature;BME280_humidity;BME280_pressure;Samples;Min_cycle;Max_cycle;Signal;HPM_P1;HPM_P2
2022/01/14 00:00:43;;;;;;;42.80;28.58;;;5.50;14.40;;;5.47;76.32;102585.63;5013868;28;20324;-69
2022/01/14 00:03:12;;;;;;;37.58;25.08;;;5.50;27.20;;;5.49;76.40;102591.69;5013723;28;20670;-69
2022/01/14 00:05:40;;;;;;;40.65;26.52;;;5.50;40.90;;;5.56;76.57;102588.38;5013540;28;20246;-70
2022/01/14 00:08:09;;;;;;;41.20;28.55;;;5.50;55.60;;;5.52;76.28;102584.22;5014179;28;20213;-70
2022/01/14 00:10:37;;;;;;;37.70;25.95;;;5.50;42.20;;;5.55;76.61;102589.34;5014134;28;20217;-70
2022/01/14 00:13:16;;;;;;;41.58;26.60;;;5.50;79.90;;;5.55;76.69;102588.50;5013826;28;20716;-69
2022/01/14 00:15:45;;;;;;;43.58;27.55;;;5.50;52.10;;;5.56;76.73;102591.06;5013894;28;20205;-70
2022/01/14 00:18:14;;;;;;;40.55;26.98;;;5.50;57.20;;;5.52;76.35;102584.22;5013551;28;20210;-69
2022/01/14 00:20:42;;;;;;;49.92;28.52;;;5.50;51.70;;;5.52;76.84;102589.59;5013881;28;20171;-70
2022/01/14 00:23:10;;;;;;;39.60;25.13;;;5.50;85.60;;;5.53;76.93;102585.94;5014033;28;20594;-70
2022/01/14 00:34:01;;;;;;;37.92;27.10;;;5.50;92.50;;;5.60;76.47;102589.81;5013326;28;20592;-70
2022/01/14 00:36:29;;;;;;;40.65;26.30;;;5.60;77.40;;;5.59;76.40;102585.44;5013066;28;20205;-70
2022/01/14 00:38:58;;;;;;;40.53;25.65;;;5.60;79.10;;;5.59;76.74;102590.81;5013154;28;20202;-70
2022/01/14 00:41:26;;;;;;;33.42;25.58;;;5.60;92.90;;;5.51;76.64;102584.38;5012811;28;20177;-69
2022/01/14 00:44:01;;;;;;;44.75;27.33;;;5.50;77.50;;;5.59;76.90;102593.50;5013102;28;20194;-70
2022/01/14 00:46:31;;;;;;;40.78;26.20;;;5.60;91.00;;;5.57;76.74;102590.06;5012829;28;20690;-70
2022/01/14 00:49:01;;;;;;;44.40;26.50;;;5.60;83.50;;;5.66;76.69;102597.34;5012607;28;20280;-70
2022/01/14 00:51:30;;;;;;;35.20;26.50;;;5.60;90.80;;;5.57;77.16;102591.88;5012768;28;20565;-69
2022/01/14 00:53:58;;;;;;;46.63;25.65;;;5.60;80.40;;;5.64;76.97;102590.41;5012261;28;20236;-70
2022/01/14 00:56:33;;;;;;;38.53;24.50;;;5.60;93.60;;;5.67;76.69;102593.69;5012707;28;20175;-70
2022/01/14 00:59:16;;;;;;;43.33;29.35;;;5.60;77.40;;;5.69;76.77;102588.19;5012300;28;20248;-70
2022/01/14 01:01:49;;;;;;;43.83;25.10;;;5.60;85.60;;;5.73;76.51;102575.34;5013118;28;20244;-69
2022/01/14 01:04:20;;;;;;;41.83;25.13;;;5.70;70.60;;;5.71;76.20;102577.34;5012631;28;20662;-70
2022/01/14 01:06:49;;;;;;;40.53;26.27;;;5.70;45.30;;;5.72;76.67;102576.31;5012627;28;20281;-69
2022/01/14 01:09:18;;;;;;;45.17;26.67;;;5.70;61.50;;;5.64;76.78;102583.22;5012502;28;20304;-70
2022/01/14 01:11:52;;;;;;;42.53;25.40;;;5.70;50.70;;;5.65;76.74;102581.38;5012830;28;20560;-70
2022/01/14 01:14:26;;;;;;;45.05;27.10;;;5.60;79.50;;;5.70;76.47;102568.41;5013141;28;20249;-70
2022/01/14 01:16:56;;;;;;;44.08;27.10;;;5.70;89.90;;;5.76;76.56;102575.94;5012591;28;20204;-70
2022/01/14 01:19:25;;;;;;;38.35;24.17;;;5.70;83.80;;;5.80;76.58;102581.91;5012553;28;20633;-69
2022/01/14 01:21:53;;;;;;;45.00;27.23;;;5.70;73.00;;;5.72;76.54;102579.88;5013420;28;20197;-70
2022/01/14 01:24:33;;;;;;;40.88;25.25;;;5.70;70.90;;;5.76;76.67;102575.09;5012296;28;20232;-70
2022/01/14 01:27:06;;;;;;;39.78;23.48;;;5.70;59.20;;;5.78;76.83;102567.75;5013426;28;20186;-70
2022/01/14 01:29:50;;;;;;;39.83;24.90;;;5.70;74.70;;;5.77;76.37;102576.78;5014520;28;20656;-70
2022/01/14 01:32:21;;;;;;;38.28;25.50;;;5.70;56.80;;;5.84;76.54;102567.25;5016565;28;20179;-70
2022/01/14 01:34:50;;;;;;;40.83;24.20;;;5.80;92.10;;;5.89;76.45;102576.66;5016025;28;20229;-69
2022/01/14 01:37:18;;;;;;;36.80;26.20;;;5.80;54.80;;;5.78;76.65;102578.50;5016194;28;20244;-69
2022/01/14 01:39:46;;;;;;;38.95;25.00;;;5.80;47.20;;;5.84;76.81;102572.59;5016332;28;20651;-69
2022/01/14 01:42:19;;;;;;;43.10;27.13;;;5.80;69.90;;;5.76;76.89;102569.72;5015998;28;20193;-69
2022/01/14 01:44:50;;;;;;;37.45;23.65;;;5.70;77.00;;;5.76;76.81;102564.38;5015646;28;20185;-71
2022/01/14 01:47:22;;;;;;;48.88;24.98;;;5.80;78.00;;;5.91;76.57;102573.81;5016012;28;20183;-70
2022/01/14 01:49:50;;;;;;;45.45;25.77;;;5.80;95.70;;;5.89;76.20;102563.22;4997926;28;20269;-69
2022/01/14 01:52:19;;;;;;;44.42;26.90;;;5.80;60.60;;;5.89;76.36;102570.41;5015643;28;20537;-71
2022/01/14 01:54:47;;;;;;;50.90;27.70;;;5.90;44.70;;;5.94;76.35;102560.97;5015473;28;20175;-69
2022/01/14 01:57:15;;;;;;;57.85;28.27;;;5.90;52.00;;;5.93;76.48;102561.97;5015450;28;20635;-70
2022/01/14 01:59:43;;;;;;;43.72;25.90;;;5.90;51.90;;;5.85;76.53;102556.38;5015340;28;20190;-69
2022/01/14 02:02:12;;;;;;;48.13;25.77;;;5.80;41.90;;;5.94;76.25;102558.28;5015451;28;20717;-70
2022/01/14 02:04:41;;;;;;;36.15;25.50;;;5.90;65.70;;;5.93;76.42;102561.97;4997636;28;20197;-69
2022/01/14 02:07:10;;;;;;;39.63;25.83;;;5.90;58.50;;;5.93;76.80;102561.97;5015179;28;20232;-69
2022/01/14 02:09:39;;;;;;;41.72;25.00;;;5.90;77.30;;;5.87;76.71;102550.88;5015285;28;20621;-69
2022/01/14 02:12:11;;;;;;;43.70;26.30;;;5.80;94.60;;;5.91;76.43;102568.44;5015239;28;20194;-69
2022/01/14 02:14:56;;;;;;;43.78;25.73;;;5.90;89.50;;;5.81;76.75;102559.44;5015176;28;20198;-70
2022/01/14 02:17:35;;;;;;;42.40;27.35;;;5.80;91.90;;;5.76;77.04;102559.81;5013749;28;20232;-69
2022/01/14 02:23:01;;;;;;;44.58;28.40;;;5.70;99.90;;;5.75;77.67;102558.13;5015162;28;20597;-70
2022/01/14 02:25:30;;;;;;;52.85;29.00;;;5.70;99.90;;;5.79;77.56;102559.56;5014849;28;20211;-70
2022/01/14 02:28:02;;;;;;;42.67;26.45;;;5.70;99.90;;;5.82;77.29;102559.28;5014811;28;20225;-72
2022/01/14 02:30:33;;;;;;;48.95;28.35;;;5.80;99.90;;;5.68;77.57;102552.41;5015225;28;20174;-70
2022/01/14 02:33:02;;;;;;;46.25;27.23;;;5.70;99.90;;;5.82;77.60;102547.69;5014822;28;20198;-70
2022/01/14 02:35:32;;;;;;;50.65;31.45;;;5.70;99.90;;;5.84;77.45;102537.69;5014808;28;20225;-70
2022/01/14 02:38:00;;;;;;;49.55;28.52;;;5.80;99.90;;;5.80;78.06;102538.94;5014712;28;20640;-70
2022/01/14 02:40:29;;;;;;;53.10;29.10;;;5.70;99.90;;;5.69;78.11;102535.31;5013293;28;20278;-69
2022/01/14 02:43:00;;;;;;;44.13;26.08;;;5.70;99.90;;;5.66;78.74;102538.25;5014591;28;20619;-71
2022/01/14 02:45:31;;;;;;;49.35;29.10;;;5.70;99.90;;;5.68;78.68;102535.44;5014400;28;20200;-70
2022/01/14 02:48:01;;;;;;;47.53;30.40;;;5.60;99.90;;;5.71;78.81;102535.19;5014436;28;20206;-70
2022/01/14 02:50:37;;;;;;;46.88;27.52;;;5.70;99.90;;;5.65;78.72;102528.50;5014345;28;20198;-70
2022/01/14 02:53:24;;;;;;;39.78;26.27;;;5.60;99.90;;;5.74;78.59;102517.97;5014354;28;20634;-70
2022/01/14 02:55:56;;;;;;;40.70;26.17;;;5.70;99.90;;;5.80;78.79;102520.13;5014056;28;20179;-68
2022/01/14 02:58:30;;;;;;;51.67;30.38;;;5.70;99.90;;;5.76;78.53;102521.38;5039528;22;20220;-70
2022/01/14 03:01:04;;;;;;;53.25;26.80;;;5.70;99.90;;;5.69;78.87;102521.03;5058915;28;20192;-69
2022/01/14 03:03:34;;;;;;;45.40;27.98;;;5.70;99.90;;;5.80;78.88;102517.44;5039876;28;20314;-70
2022/01/14 03:06:06;;;;;;;44.08;28.42;;;5.70;99.90;;;5.76;78.99;102521.38;5036206;28;20197;-70
2022/01/14 03:08:36;;;;;;;54.78;29.13;;;5.70;99.90;;;5.72;79.04;102519.91;5027979;28;20284;-70
2022/01/14 03:11:10;;;;;;;52.05;28.60;;;5.70;99.90;;;5.71;79.09;102515.53;5014772;28;20186;-71
2022/01/14 03:13:40;;;;;;;54.88;29.48;;;5.70;99.90;;;5.62;79.77;102512.63;5014721;28;20193;-71
2022/01/14 03:16:09;;;;;;;61.92;30.67;;;5.60;99.90;;;5.73;79.55;102500.13;5013926;28;20225;-70
2022/01/14 03:18:43;;;;;;;54.42;31.33;;;5.70;99.90;;;5.63;79.95;102500.91;5014447;28;20214;-70
2022/01/14 03:21:15;;;;;;;52.15;29.70;;;5.60;99.90;;;5.69;79.95;102497.72;5014825;28;20237;-72
2022/01/14 03:23:49;;;;;;;54.05;30.13;;;5.60;99.90;;;5.73;79.80;102498.28;4997530;28;20281;-71
2022/01/14 03:26:21;;;;;;;60.20;30.20;;;5.70;99.90;;;5.60;80.45;102490.44;5013850;28;20204;-70
2022/01/14 03:28:51;;;;;;;48.67;28.35;;;5.60;99.90;;;5.59;80.72;102494.13;5013621;28;20222;-70
2022/01/14 03:31:19;;;;;;;46.83;30.60;;;5.60;99.90;;;5.52;80.75;102484.88;5013835;28;20210;-73
2022/01/14 03:33:48;;;;;;;55.20;32.00;;;5.50;99.90;;;5.52;81.00;102475.94;5014329;28;20740;-71
2022/01/14 03:36:18;;;;;;;48.53;31.98;;;5.50;99.90;;;5.50;81.33;102473.41;5013766;28;20244;-72
2022/01/14 03:38:46;;;;;;;59.17;31.98;;;5.50;99.90;;;5.53;81.12;102477.66;5013425;28;20694;-69
2022/01/14 03:41:14;;;;;;;56.80;30.05;;;5.50;99.90;;;5.46;81.53;102473.81;5013453;28;20221;-70
2022/01/14 03:43:43;;;;;;;54.20;31.40;;;5.50;99.90;;;5.53;82.08;102473.16;5013800;28;20185;-71
2022/01/14 03:46:12;;;;;;;51.10;32.15;;;5.50;99.90;;;5.51;81.89;102469.75;5013342;28;20312;-70
2022/01/14 03:48:41;;;;;;;51.13;29.10;;;5.50;99.90;;;5.55;81.46;102465.81;5013188;28;20276;-72
2022/01/14 03:51:11;;;;;;;62.72;33.45;;;5.50;99.90;;;5.42;82.13;102462.47;5013303;28;20550;-69
2022/01/14 03:53:41;;;;;;;56.13;32.05;;;5.40;99.90;;;5.42;82.34;102454.41;5012707;28;20179;-71
2022/01/14 03:56:10;;;;;;;57.40;32.58;;;5.40;99.90;;;5.45;82.61;102458.69;5014433;28;20175;-71
2022/01/14 03:58:41;;;;;;;62.70;33.72;;;5.40;99.90;;;5.44;82.38;102463.19;5013297;28;20213;-69
2022/01/14 04:01:10;;;;;;;74.00;33.42;;;5.40;99.90;;;5.37;82.70;102453.97;5013162;28;20178;-71
2022/01/14 04:03:40;;;;;;;53.33;30.92;;;5.40;99.90;;;5.36;82.74;102454.94;5013051;28;20221;-71
2022/01/14 04:06:10;;;;;;;50.88;29.40;;;5.30;99.90;;;5.27;83.04;102445.00;5013790;28;20183;-70
2022/01/14 04:08:41;;;;;;;53.80;30.08;;;5.30;99.90;;;5.30;83.23;102439.34;5014709;28;20202;-70
2022/01/14 04:11:11;;;;;;;50.70;30.15;;;5.30;99.90;;;5.35;83.09;102429.09;5016328;28;20237;-72
2022/01/14 04:13:47;;;;;;;53.92;31.13;;;5.30;99.90;;;5.32;83.20;102431.19;5016081;28;20174;-72
2022/01/14 04:16:18;;;;;;;56.22;30.30;;;5.30;99.90;;;5.35;83.25;102426.41;5014830;28;20252;-71
2022/01/14 04:18:47;;;;;;;55.42;33.75;;;5.30;99.90;;;5.29;83.51;102434.97;5013396;28;20221;-71
2022/01/14 04:21:15;;;;;;;58.47;33.83;;;5.30;99.90;;;5.30;83.73;102443.88;5014218;28;20225;-71
2022/01/14 04:23:46;;;;;;;57.72;30.60;;;5.20;99.90;;;5.31;83.62;102435.69;5014460;28;20193;-70
2022/01/14 04:26:15;;;;;;;54.13;29.95;;;5.30;99.90;;;5.26;83.55;102437.91;5015891;28;20277;-71
2022/01/14 04:28:44;;;;;;;50.83;29.50;;;5.20;99.90;;;5.31;83.47;102435.69;5014875;28;20659;-69
2022/01/14 04:31:12;;;;;;;55.33;27.75;;;5.30;99.90;;;5.33;83.41;102431.03;5014650;28;20285;-70
2022/01/14 04:33:40;;;;;;;55.13;32.40;;;5.30;99.90;;;5.29;83.65;102426.91;5014982;28;20241;-70
2022/01/14 04:36:09;;;;;;;65.05;31.05;;;5.30;99.90;;;5.28;83.87;102429.75;5014609;28;20189;-71
2022/01/14 04:38:37;;;;;;;44.28;28.33;;;5.30;99.90;;;5.28;83.67;102427.88;5013748;28;20210;-70
2022/01/14 04:41:08;;;;;;;53.88;29.73;;;5.20;99.90;;;5.33;83.33;102425.66;5012450;28;20190;-71
2022/01/14 04:43:38;;;;;;;52.83;30.52;;;5.30;99.90;;;5.29;83.97;102420.69;5012846;28;20193;-70
2022/01/14 04:49:07;;;;;;;45.88;26.20;;;5.20;99.90;;;5.31;83.59;102398.13;4951884;28;20224;-71
2022/01/14 04:51:37;;;;;;;57.53;30.92;;;5.30;99.90;;;5.24;83.60;102391.56;4952495;29;20640;-70
2022/01/14 04:54:05;;;;;;;47.42;29.17;;;5.20;99.90;;;5.28;83.97;102392.16;4980535;28;20210;-70
2022/01/14 04:56:35;;;;;;;53.47;30.25;;;5.20;99.90;;;5.31;83.58;102394.56;5012352;28;20269;-70
2022/01/14 04:59:04;;;;;;;54.70;30.38;;;5.30;99.90;;;5.35;83.49;102388.81;5012726;28;20240;-70
2022/01/14 05:01:32;;;;;;;64.75;28.15;;;5.30;99.90;;;5.30;83.84;102385.66;5012189;28;20190;-70
2022/01/14 05:04:01;;;;;;;61.35;30.10;;;5.30;99.90;;;5.31;83.48;102384.69;5012104;28;20232;-69
2022/01/14 05:06:30;;;;;;;54.80;30.70;;;5.30;99.90;;;5.24;83.99;102383.50;5015977;28;20659;-69
2022/01/14 05:08:59;;;;;;;48.28;30.05;;;5.30;99.90;;;5.30;83.59;102395.56;5016539;28;20304;-70
2022/01/14 05:11:38;;;;;;;50.00;31.55;;;5.30;99.90;;;5.23;83.98;102385.34;5016108;28;20209;-70
2022/01/14 05:14:08;;;;;;;57.10;32.53;;;5.20;99.90;;;5.35;83.61;102399.53;5016347;28;20209;-71
2022/01/14 05:16:36;;;;;;;51.45;30.40;;;5.30;99.90;;;5.30;84.09;102391.03;5015990;28;20178;-70
2022/01/14 05:19:05;;;;;;;51.75;32.53;;;5.30;99.90;;;5.41;83.60;102380.25;5016471;28;20592;-69
2022/01/14 05:21:33;;;;;;;43.53;26.67;;;5.30;99.90;;;5.37;83.82;102383.31;5016255;28;20198;-69
2022/01/14 05:24:01;;;;;;;47.45;27.70;;;5.30;99.90;;;5.31;83.83;102390.06;5016063;28;20175;-70
2022/01/14 05:26:30;;;;;;;45.15;29.02;;;5.30;99.90;;;5.35;83.66;102383.44;5016381;28;20523;-70
2022/01/14 05:28:58;;;;;;;52.17;31.52;;;5.30;99.90;;;5.30;83.97;102385.66;5016350;28;20574;-71
2022/01/14 05:31:46;;;;;;;50.83;30.55;;;5.30;99.90;;;5.32;83.76;102383.72;5015914;28;20182;-72
2022/01/14 05:34:15;;;;;;;44.05;27.33;;;5.30;99.90;;;5.31;83.72;102382.00;5015738;28;20252;-70
2022/01/14 05:36:45;;;;;;;46.90;30.05;;;5.30;99.90;;;5.42;83.71;102389.97;5015763;28;20194;-70
2022/01/14 05:39:13;;;;;;;51.58;31.38;;;5.30;99.90;;;5.44;83.14;102390.69;5020216;28;20240;-70
2022/01/14 05:41:42;;;;;;;47.15;27.85;;;5.40;99.90;;;5.42;83.46;102395.34;5024320;28;20209;-70
2022/01/14 05:44:12;;;;;;;50.63;27.88;;;5.40;99.90;;;5.47;83.08;102393.09;5016193;28;20594;-69
2022/01/14 05:46:40;;;;;;;55.13;27.52;;;5.40;99.90;;;5.49;83.33;102385.78;5015963;28;20591;-71
2022/01/14 05:49:11;;;;;;;47.42;25.50;;;5.40;99.90;;;5.50;82.83;102382.13;5015726;28;20635;-71
2022/01/14 05:51:40;;;;;;;47.08;28.25;;;5.50;99.90;;;5.45;83.06;102365.56;5015266;28;20193;-71
2022/01/14 05:54:08;;;;;;;43.95;26.00;;;5.40;99.90;;;5.52;83.01;102368.53;5015546;28;20217;-72
2022/01/14 05:56:37;;;;;;;44.38;25.60;;;5.40;99.90;;;5.44;82.89;102360.31;5015781;28;20178;-71
2022/01/14 05:59:06;;;;;;;49.53;29.10;;;5.40;99.90;;;5.44;82.72;102363.00;5015478;28;20642;-71
2022/01/14 06:01:35;;;;;;;47.05;26.67;;;5.40;99.90;;;5.46;82.79;102367.25;5015064;28;20277;-71
2022/01/14 06:04:04;;;;;;;47.72;28.05;;;5.40;99.90;;;5.42;82.69;102368.50;5014933;28;20255;-70
2022/01/14 06:06:35;;;;;;;40.83;26.65;;;5.40;99.90;;;5.50;82.26;102373.22;5014811;28;20266;-71
2022/01/14 06:09:05;;;;;;;50.17;27.60;;;5.40;99.90;;;5.45;82.42;102362.88;5014635;28;20268;-71
2022/01/14 06:11:33;;;;;;;51.10;28.50;;;5.40;99.90;;;5.54;82.42;102359.38;5015077;28;20186;-69
2022/01/14 06:14:02;;;;;;;39.33;25.40;;;5.40;99.90;;;5.58;82.31;102363.50;5015084;28;20194;-72
2022/01/14 06:16:30;;;;;;;41.90;26.92;;;5.50;99.90;;;5.55;81.83;102355.72;5014038;28;20186;-71
2022/01/14 06:18:59;;;;;;;39.83;26.40;;;5.50;99.90;;;5.46;81.87;102363.72;5014643;28;20702;-70
2022/01/14 06:21:27;;;;;;;39.13;24.73;;;5.40;99.90;;;5.48;82.11;102362.59;5014692;28;20201;-71
2022/01/14 06:23:57;;;;;;;44.38;28.10;;;5.40;99.90;;;5.51;81.95;102370.41;5015169;28;20639;-70
2022/01/14 06:26:25;;;;;;;50.08;26.60;;;5.40;99.90;;;5.45;81.83;102378.97;5019544;28;20236;-70
2022/01/14 06:28:53;;;;;;;57.58;29.60;;;5.40;99.90;;;5.44;82.07;102366.53;5015084;28;20218;-69
2022/01/14 06:31:22;;;;;;;53.30;31.38;;;5.40;99.90;;;5.43;81.48;102380.94;5014253;28;20182;-70
2022/01/14 06:33:50;;;;;;;51.22;29.48;;;5.40;99.90;;;5.41;81.52;102396.34;5015011;28;20631;-71
2022/01/14 06:36:19;;;;;;;63.33;33.22;;;5.40;99.90;;;5.29;81.54;102392.00;5013972;28;20174;-69
2022/01/14 06:38:47;;;;;;;59.13;31.33;;;5.30;99.90;;;5.30;81.88;102388.34;5014133;28;20202;-70
2022/01/14 06:41:17;;;;;;;63.38;33.78;;;5.30;99.90;;;5.31;81.84;102394.56;5013969;28;20175;-71
2022/01/14 06:43:45;;;;;;;67.55;33.33;;;5.30;99.90;;;5.27;81.78;102401.19;5014493;28;20198;-69
2022/01/14 06:46:14;;;;;;;72.10;36.10;;;5.20;99.90;;;5.23;81.56;102411.31;5013847;28;20197;-70
2022/01/14 06:48:42;;;;;;;80.22;37.70;;;5.20;99.90;;;5.19;81.42;102423.31;5014557;28;20247;-71
2022/01/14 06:51:15;;;;;;;59.50;31.98;;;5.20;99.90;;;5.21;81.66;102415.97;5014140;28;20639;-70
2022/01/14 06:53:46;;;;;;;65.97;35.10;;;5.20;99.90;;;5.21;81.34;102411.47;5014878;28;20194;-71
2022/01/14 06:56:17;;;;;;;59.70;34.88;;;5.20;99.90;;;5.29;81.29;102420.69;5016263;28;20182;-72
2022/01/14 06:58:46;;;;;;;78.35;34.42;;;5.20;99.90;;;5.28;80.78;102425.19;4998855;28;20230;-72
2022/01/14 07:01:15;;;;;;;60.38;32.83;;;5.20;99.90;;;5.19;80.77;102420.63;5014839;28;20233;-71
2022/01/14 07:03:43;;;;;;;58.50;34.10;;;5.20;99.90;;;5.32;80.93;102410.56;5013822;28;20205;-68
2022/01/14 07:06:12;;;;;;;57.28;31.83;;;5.20;99.90;;;5.40;79.95;102409.88;5013845;28;20654;-70
2022/01/14 07:08:40;;;;;;;54.58;30.50;;;5.30;99.90;;;5.41;80.20;102408.91;5014460;28;20245;-72
2022/01/14 07:11:10;;;;;;;60.65;29.05;;;5.30;99.90;;;5.33;80.10;102404.19;5014344;28;20182;-72
2022/01/14 07:13:40;;;;;;;52.92;28.45;;;5.30;99.90;;;5.48;79.64;102405.56;5014138;28;20181;-71
2022/01/14 07:16:09;;;;;;;52.92;30.25;;;5.40;99.90;;;5.56;79.29;102396.84;5014140;28;20174;-71
2022/01/14 07:18:37;;;;;;;50.22;29.20;;;5.40;99.90;;;5.53;79.35;102389.91;5013860;28;20271;-70
2022/01/14 07:21:05;;;;;;;56.45;29.10;;;5.50;99.90;;;5.50;79.18;102387.50;5014522;28;20553;-70
2022/01/14 07:23:33;;;;;;;43.88;27.90;;;5.50;99.90;;;5.51;79.47;102378.47;5013978;28;20225;-70
2022/01/14 07:26:02;;;;;;;45.28;29.33;;;5.50;99.90;;;5.47;79.12;102371.63;4996233;28;20213;-71
2022/01/14 07:28:30;;;;;;;51.75;28.40;;;5.50;99.90;;;5.48;79.15;102367.97;5012457;28;20203;-71
2022/01/14 07:31:00;;;;;;;47.90;28.52;;;5.40;99.90;;;5.43;79.59;102380.94;5012987;28;20248;-70
2022/01/14 07:33:28;;;;;;;48.22;29.45;;;5.40;99.90;;;5.44;79.51;102393.38;4995935;28;20293;-70
2022/01/14 07:35:56;;;;;;;53.60;28.77;;;5.40;99.90;;;5.49;79.40;102395.66;5013045;28;20245;-71
2022/01/14 07:38:25;;;;;;;40.13;27.33;;;5.40;99.90;;;5.54;79.26;102382.69;5013503;28;20264;-71
2022/01/14 07:40:53;;;;;;;44.72;27.33;;;5.50;99.90;;;5.50;79.48;102384.81;5014784;28;20190;-69
2022/01/14 07:43:22;;;;;;;45.30;29.95;;;5.50;99.90;;;5.49;79.43;102391.16;5019475;28;20214;-70
2022/01/14 07:45:50;;;;;;;45.50;23.92;;;5.40;99.90;;;5.45;79.80;102372.75;5019692;28;20280;-70
2022/01/14 07:48:20;;;;;;;46.03;28.10;;;5.40;99.90;;;5.49;79.36;102388.47;5021314;28;20202;-69
2022/01/14 07:50:48;;;;;;;46.60;28.45;;;5.40;99.90;;;5.49;79.50;102369.66;5020769;28;20597;-69
2022/01/14 07:53:17;;;;;;;44.85;27.80;;;5.40;99.90;;;5.52;79.62;102372.06;5020397;28;20533;-70
2022/01/14 07:55:46;;;;;;;48.22;27.95;;;5.50;99.90;;;5.51;79.59;102383.81;5020743;28;20257;-70
2022/01/14 07:58:15;;;;;;;45.45;26.17;;;5.40;99.90;;;5.53;79.33;102373.78;5019689;28;20281;-70
2022/01/14 08:00:45;;;;;;;46.53;26.17;;;5.50;99.90;;;5.52;79.50;102372.06;5030187;28;20220;-71
2022/01/14 08:03:13;;;;;;;45.25;27.73;;;5.50;99.90;;;5.44;79.56;102382.66;5028334;28;20203;-71
2022/01/14 08:05:44;;;;;;;45.45;25.48;;;5.50;99.90;;;5.46;79.90;102375.31;5031934;28;20191;-71
2022/01/14 08:08:13;;;;;;;43.28;24.63;;;5.40;99.90;;;5.60;79.40;102374.97;5032130;28;20221;-71
2022/01/14 08:10:42;;;;;;;47.22;28.35;;;5.50;99.90;;;5.55;79.76;102374.50;5033235;28;20197;-71
2022/01/14 08:13:13;;;;;;;38.88;24.13;;;5.50;99.90;;;5.46;79.57;102377.16;5032506;28;20169;-70
2022/01/14 08:15:47;;;;;;;47.72;25.92;;;5.50;99.90;;;5.45;79.92;102378.97;5031846;28;20215;-70
2022/01/14 08:18:16;;;;;;;43.40;26.30;;;5.40;99.90;;;5.54;80.03;102372.81;5031903;28;20205;-72
2022/01/14 08:20:48;;;;;;;47.67;26.20;;;5.50;99.90;;;5.63;79.88;102366.63;5032797;28;20712;-71
2022/01/14 08:23:19;;;;;;;41.55;24.92;;;5.50;99.90;;;5.63;79.68;102363.94;5032413;28;20595;-71
2022/01/14 08:25:57;;;;;;;36.97;22.23;;;5.60;99.90;;;5.60;79.65;102366.91;5032934;28;20260;-70
2022/01/14 08:28:26;;;;;;;42.28;23.52;;;5.60;99.90;;;5.60;79.82;102369.59;5032310;28;20213;-72
2022/01/14 08:30:55;;;;;;;45.10;25.58;;;5.60;99.90;;;5.62;79.83;102375.66;5032511;28;20212;-69
2022/01/14 08:33:24;;;;;;;46.25;23.55;;;5.60;99.90;;;5.55;80.31;102379.88;5014562;28;20288;-70
2022/01/14 08:35:54;;;;;;;42.70;23.17;;;5.50;99.90;;;5.46;80.15;102364.56;5031831;28;20688;-70
2022/01/14 08:38:23;;;;;;;43.58;25.77;;;5.50;99.90;;;5.58;80.29;102368.00;5032157;28;20268;-71
2022/01/14 08:40:52;;;;;;;41.05;25.08;;;5.50;99.90;;;5.57;80.53;102366.31;5031511;28;20243;-71
2022/01/14 08:43:21;;;;;;;38.78;23.60;;;5.50;99.90;;;5.64;80.42;102367.47;5013396;28;20203;-72
2022/01/14 08:45:50;;;;;;;43.45;24.13;;;5.50;99.90;;;5.66;80.23;102366.34;5031739;28;20277;-71
2022/01/14 08:48:19;;;;;;;44.47;24.10;;;5.60;99.90;;;5.63;80.62;102369.31;5036905;28;20212;-70
2022/01/14 08:50:49;;;;;;;44.40;22.13;;;5.60;99.90;;;5.56;80.37;102370.84;5052264;28;20220;-70
2022/01/14 08:53:19;;;;;;;46.35;23.77;;;5.50;99.90;;;5.53;80.80;102371.09;5055857;28;20177;-71
2022/01/14 08:55:47;;;;;;;43.00;23.40;;;5.50;99.90;;;5.63;80.33;102377.38;5051956;28;20262;-70
2022/01/14 08:58:16;;;;;;;40.58;25.20;;;5.60;99.90;;;5.64;80.68;102383.59;5041892;28;20217;-71
2022/01/14 09:00:45;;;;;;;42.25;24.67;;;5.60;99.90;;;5.53;80.78;102373.78;5076605;22;20223;-71
2022/01/14 09:03:15;;;;;;;33.33;21.25;;;5.50;99.90;;;5.52;80.71;102368.53;5071762;28;20245;-70
2022/01/14 09:05:44;;;;;;;47.30;26.35;;;5.50;99.90;;;5.51;80.50;102362.34;5071339;28;20226;-71
2022/01/14 09:08:36;;;;;;;36.05;22.02;;;5.50;99.90;;;5.56;80.74;102360.09;5053774;28;20215;-72
2022/01/14 09:11:29;;;;;;;35.83;23.13;;;5.50;99.90;;;5.64;80.49;102356.75;5060605;28;20724;-71
2022/01/14 09:13:57;;;;;;;45.53;23.23;;;5.60;99.90;;;5.62;80.30;102354.19;5071497;28;20173;-72
2022/01/14 09:16:27;;;;;;;40.83;26.52;;;5.60;99.90;;;5.72;79.97;102342.63;5054172;28;20227;-74
2022/01/14 09:18:57;;;;;;;40.40;25.08;;;5.60;99.90;;;5.70;80.28;102356.22;5054078;28;20216;-73
2022/01/14 09:21:26;;;;;;;41.30;23.20;;;5.60;99.90;;;5.71;80.25;102363.28;5054097;28;20188;-73
2022/01/14 09:24:03;;;;;;;33.83;21.50;;;5.60;99.90;;;5.68;79.81;102350.09;5072256;28;20183;-71
2022/01/14 09:26:35;;;;;;;44.58;24.25;;;5.70;99.90;;;5.77;79.90;102361.88;5053960;28;20198;-72
2022/01/14 09:29:08;;;;;;;43.63;24.58;;;5.70;99.90;;;5.75;80.01;102348.59;5053438;28;20215;-71
2022/01/14 09:31:36;;;;;;;34.67;21.38;;;5.70;99.90;;;5.77;79.98;102345.75;5053815;28;20207;-69
2022/01/14 09:34:05;;;;;;;35.38;22.65;;;5.70;99.90;;;5.80;79.39;102350.88;5053946;28;20286;-70
2022/01/14 09:36:34;;;;;;;34.25;20.65;;;5.70;99.90;;;5.87;79.20;102338.59;5073685;28;20176;-71
2022/01/14 09:39:05;;;;;;;39.00;23.17;;;5.80;99.90;;;5.85;79.40;102354.00;5061787;28;20211;-71
2022/01/14 09:41:36;;;;;;;34.38;22.02;;;5.80;99.90;;;5.83;79.51;102354.13;5060455;28;20238;-72
2022/01/14 09:44:05;;;;;;;48.60;23.13;;;5.80;99.90;;;5.81;79.22;102357.94;5076446;28;20176;-71
2022/01/14 09:46:34;;;;;;;33.17;21.58;;;5.80;99.90;;;5.83;79.40;102347.91;5055619;28;20536;-75
2022/01/14 09:52:51;;;;;;;31.52;20.65;;;5.80;99.90;;;5.99;78.74;102342.91;5065047;28;20570;-72
2022/01/14 09:55:22;;;;;;;34.10;19.95;;;5.80;99.90;;;5.79;79.29;102343.78;5075233;28;20172;-73
2022/01/14 09:57:53;;;;;;;39.38;20.50;;;5.80;99.90;;;5.80;79.37;102337.44;5075672;28;20419;-72
2022/01/14 10:00:23;;;;;;;34.78;21.27;;;5.80;99.90;;;5.95;79.26;102349.53;5076783;28;20196;-72
2022/01/14 10:02:52;;;;;;;31.05;20.02;;;5.80;99.90;;;5.95;78.88;102328.06;5058128;28;20196;-71
2022/01/14 10:05:39;;;;;;;38.30;22.38;;;5.90;99.90;;;5.98;78.83;102333.13;5058099;28;20195;-71
2022/01/14 10:08:21;;;;;;;40.60;20.42;;;5.90;99.90;;;6.00;78.64;102328.50;5058259;28;20215;-71
2022/01/14 10:10:54;;;;;;;32.70;21.35;;;5.90;99.90;;;6.16;78.51;102336.84;5075251;28;20200;-70
2022/01/14 10:13:28;;;;;;;30.38;21.00;;;6.00;99.90;;;6.12;78.53;102346.19;5055737;28;20204;-71
2022/01/14 10:16:03;;;;;;;39.78;22.88;;;6.00;99.90;;;6.18;78.10;102345.63;5074077;28;20188;-72
2022/01/14 10:18:33;;;;;;;38.25;21.65;;;6.10;99.90;;;6.34;78.20;102350.50;5073981;28;20215;-70
2022/01/14 10:21:06;;;;;;;32.63;18.55;;;6.10;99.90;;;6.23;78.20;102354.16;5056061;28;20200;-72
2022/01/14 10:23:43;;;;;;;32.20;18.05;;;6.10;99.90;;;6.09;78.53;102355.38;5055882;28;20230;-71
2022/01/14 10:26:13;;;;;;;32.92;19.90;;;6.10;99.90;;;6.21;78.21;102350.72;5073958;28;20176;-69
2022/01/14 10:28:58;;;;;;;29.55;15.32;;;6.10;99.90;;;6.10;78.13;102357.06;5074046;28;20199;-72
2022/01/14 10:31:35;;;;;;;29.15;16.75;;;6.10;99.90;;;6.22;78.41;102362.34;5055922;28;20243;-73
2022/01/14 10:34:16;;;;;;;28.08;17.05;;;6.20;99.90;;;6.29;77.81;102348.22;5074138;28;20255;-72
2022/01/14 10:36:47;;;;;;;33.00;15.82;;;6.20;99.90;;;6.34;77.36;102356.69;5056339;28;20196;-75
2022/01/14 10:39:24;;;;;;;30.75;15.77;;;6.20;99.90;;;6.24;78.03;102349.63;5075733;28;20437;-75
2022/01/14 10:41:56;;;;;;;28.23;13.85;;;6.20;99.90;;;6.30;77.60;102347.19;5058165;28;20188;-72
2022/01/14 10:44:38;;;;;;;23.50;15.45;;;6.20;99.90;;;6.35;77.80;102336.88;5075804;28;20206;-73